createdAt,value
2023-05-12T00:00:49.062Z,3.60
2023-05-12T00:03:17.279Z,3.20
2023-05-12T00:05:44.940Z,3.73
2023-05-12T00:08:12.668Z,3.80
2023-05-12T00:10:40.405Z,3.40
2023-05-12T00:13:10.227Z,4.23
2023-05-12T00:15:38.640Z,4.00
2023-05-12T00:18:06.593Z,3.90
2023-05-12T00:20:34.356Z,3.23
2023-05-12T00:23:01.980Z,3.37
2023-05-12T00:25:29.666Z,4.10
2023-05-12T00:27:57.342Z,4.30
2023-05-12T00:30:26.697Z,3.67
2023-05-12T00:32:54.475Z,4.17
2023-05-12T00:35:22.364Z,3.90
2023-05-12T00:37:50.101Z,3.87
2023-05-12T00:40:19.874Z,3.67
2023-05-12T00:42:47.926Z,4.30
2023-05-12T00:45:15.607Z,3.57
2023-05-12T00:47:46.730Z,4.20
2023-05-12T00:50:15.640Z,3.60
2023-05-12T00:52:43.723Z,4.00
2023-05-12T00:55:11.528Z,4.10
2023-05-12T00:57:40.009Z,3.97
2023-05-12T01:00:09.306Z,4.17
2023-05-12T01:02:37.741Z,4.03
2023-05-12T01:05:07.580Z,3.30
2023-05-12T01:07:36.529Z,3.83
2023-05-12T01:10:07.946Z,3.70
2023-05-12T01:12:36.245Z,4.00
2023-05-12T01:15:05.030Z,3.97
2023-05-12T01:17:35.082Z,3.97
2023-05-12T01:20:13.716Z,4.23
2023-05-12T01:22:54.157Z,3.83
2023-05-12T01:25:28.363Z,4.20
2023-05-12T01:27:58.358Z,3.90
2023-05-12T01:30:27.026Z,3.87
2023-05-12T01:32:55.073Z,3.50
2023-05-12T01:35:22.892Z,3.90
2023-05-12T01:37:52.011Z,4.03
2023-05-12T01:40:19.917Z,5.00
2023-05-12T01:42:47.824Z,4.70
2023-05-12T01:45:17.103Z,5.27
2023-05-12T01:47:45.201Z,5.50
2023-05-12T01:50:12.914Z,5.53
2023-05-12T01:52:40.627Z,4.87
2023-05-12T01:55:09.178Z,5.40
2023-05-12T01:57:36.958Z,5.33
2023-05-12T02:00:05.281Z,5.47
2023-05-12T02:02:34.651Z,5.23
2023-05-12T02:05:02.370Z,5.60
2023-05-12T02:07:30.087Z,6.10
2023-05-12T02:09:58.144Z,5.70
2023-05-12T02:12:25.830Z,6.47
2023-05-12T02:14:53.617Z,5.90
2023-05-12T02:17:21.336Z,5.97
2023-05-12T02:19:51.229Z,6.33
2023-05-12T02:22:19.070Z,6.27
2023-05-12T02:24:47.017Z,6.30
2023-05-12T02:27:14.792Z,6.77
2023-05-12T02:29:43.087Z,6.30
2023-05-12T02:32:11.328Z,6.50
2023-05-12T02:34:39.826Z,6.20
2023-05-12T02:37:10.315Z,6.97
2023-05-12T02:39:38.319Z,6.53
2023-05-12T02:42:07.153Z,6.50
2023-05-12T02:44:37.592Z,6.17
2023-05-12T02:47:05.860Z,6.63
2023-05-12T02:49:34.316Z,7.60
2023-05-12T02:52:04.871Z,7.27
2023-05-12T02:54:36.811Z,6.97
2023-05-12T02:57:06.508Z,7.07
2023-05-12T02:59:37.045Z,6.80
2023-05-12T03:02:05.619Z,7.27
2023-05-12T03:04:35.199Z,6.80
2023-05-12T03:07:02.880Z,7.20
2023-05-12T03:09:31.694Z,6.80
2023-05-12T03:12:00.825Z,6.53
2023-05-12T03:14:28.945Z,7.57
2023-05-12T03:16:56.674Z,7.53
2023-05-12T03:19:24.460Z,6.90
2023-05-12T03:21:52.903Z,6.87
2023-05-12T03:24:20.730Z,6.90
2023-05-12T03:26:48.652Z,7.23
2023-05-12T03:29:17.655Z,7.50
2023-05-12T03:31:46.101Z,6.73
2023-05-12T03:34:13.938Z,6.70
2023-05-12T03:36:42.210Z,6.00
2023-05-12T03:39:12.286Z,7.30
2023-05-12T03:41:41.259Z,6.43
2023-05-12T03:44:10.045Z,6.93
2023-05-12T03:46:39.481Z,6.37
2023-05-12T03:49:07.250Z,5.73
2023-05-12T03:51:35.440Z,5.70
2023-05-12T03:54:03.794Z,6.10
2023-05-12T03:56:31.684Z,5.80
2023-05-12T03:59:00.296Z,6.17
2023-05-12T04:01:30.957Z,6.50
2023-05-12T04:04:01.671Z,5.87
2023-05-12T04:06:30.095Z,6.10
2023-05-12T04:08:58.169Z,6.40
2023-05-12T04:11:28.039Z,6.13
2023-05-12T04:13:56.969Z,6.33
2023-05-12T04:16:25.041Z,6.13
2023-05-12T04:18:53.068Z,6.00
2023-05-12T04:21:22.902Z,5.70
2023-05-12T04:23:56.290Z,6.13
2023-05-12T04:26:24.900Z,6.17
2023-05-12T04:28:53.365Z,6.03
2023-05-12T04:31:21.228Z,5.87
2023-05-12T04:33:52.116Z,5.47
2023-05-12T04:36:27.616Z,5.90
2023-05-12T04:38:57.046Z,5.23
2023-05-12T04:41:24.750Z,6.00
2023-05-12T04:46:25.401Z,6.60
2023-05-12T04:48:53.688Z,6.50
2023-05-12T04:51:25.093Z,6.27
2023-05-12T04:53:54.166Z,6.50
2023-05-12T04:56:23.897Z,6.10
2023-05-12T04:58:53.556Z,6.67
2023-05-12T05:01:22.159Z,5.83
2023-05-12T05:03:52.129Z,7.03
2023-05-12T05:06:22.418Z,5.33
2023-05-12T05:08:58.731Z,6.60
2023-05-12T05:11:27.109Z,6.00
2023-05-12T05:13:57.401Z,5.87
2023-05-12T05:16:25.730Z,5.80
2023-05-12T05:18:55.164Z,5.90
2023-05-12T05:21:22.973Z,6.17
2023-05-12T05:23:52.752Z,6.13
2023-05-12T05:26:21.495Z,5.67
2023-05-12T05:28:49.994Z,5.97
2023-05-12T05:31:19.556Z,5.77
2023-05-12T05:33:50.446Z,6.97
2023-05-12T05:36:18.251Z,6.13
2023-05-12T05:38:49.775Z,6.10
2023-05-12T05:41:20.869Z,6.10
2023-05-12T05:43:48.997Z,5.90
2023-05-12T05:46:17.304Z,5.83
2023-05-12T05:48:46.018Z,6.70
2023-05-12T05:51:15.767Z,6.30
2023-05-12T05:53:44.262Z,5.83
2023-05-12T05:56:12.998Z,6.00
2023-05-12T05:58:44.666Z,6.70
2023-05-12T06:01:13.177Z,6.60
2023-05-12T06:03:41.597Z,6.43
2023-05-12T06:06:09.947Z,5.70
2023-05-12T06:08:39.796Z,6.20
2023-05-12T06:11:09.929Z,6.00
2023-05-12T06:13:37.912Z,6.67
2023-05-12T06:16:08.156Z,6.27
2023-05-12T06:18:38.291Z,6.23
2023-05-12T06:21:08.569Z,5.83
2023-05-12T06:23:36.768Z,5.53
2023-05-12T06:26:04.703Z,5.50
2023-05-12T06:28:32.558Z,6.13
2023-05-12T06:31:00.699Z,6.93
2023-05-12T06:33:31.101Z,5.90
2023-05-12T06:36:04.636Z,5.90
2023-05-12T06:38:32.440Z,6.07
2023-05-12T06:41:05.906Z,6.53
2023-05-12T06:43:34.698Z,6.53
2023-05-12T06:46:03.886Z,6.83
2023-05-12T06:48:36.064Z,5.73
2023-05-12T06:51:04.863Z,5.10
2023-05-12T06:53:37.483Z,5.83
2023-05-12T06:56:08.086Z,5.67
2023-05-12T06:58:36.259Z,5.13
2023-05-12T07:01:04.252Z,4.80
2023-05-12T07:03:34.669Z,4.37
2023-05-12T07:06:02.428Z,4.50
2023-05-12T07:08:30.413Z,4.10
2023-05-12T07:11:00.670Z,3.93
2023-05-12T07:13:29.055Z,4.30
2023-05-12T07:15:56.778Z,4.20
2023-05-12T07:18:24.509Z,4.13
2023-05-12T07:20:54.044Z,3.70
2023-05-12T07:23:21.852Z,3.70
2023-05-12T07:25:49.642Z,3.47
2023-05-12T07:28:17.465Z,3.23
2023-05-12T07:30:45.201Z,2.80
2023-05-12T07:33:12.911Z,2.60
2023-05-12T07:35:40.898Z,3.10
2023-05-12T07:38:10.528Z,3.33
2023-05-12T07:40:38.177Z,3.00
2023-05-12T07:43:05.940Z,3.43
2023-05-12T07:45:33.643Z,2.47
2023-05-12T07:48:01.547Z,2.87
2023-05-12T07:50:29.410Z,2.90
2023-05-12T07:52:57.232Z,2.50
2023-05-12T07:55:26.701Z,3.20
2023-05-12T07:57:54.517Z,3.10
2023-05-12T08:00:22.966Z,2.77
2023-05-12T08:02:51.151Z,3.00
2023-05-12T08:05:19.548Z,2.13
2023-05-12T08:07:47.529Z,2.20
2023-05-12T08:10:15.378Z,3.00
2023-05-12T08:12:44.593Z,2.50
2023-05-12T08:15:12.466Z,3.37
2023-05-12T08:17:40.250Z,2.93
2023-05-12T08:20:09.147Z,2.57
2023-05-12T08:22:39.539Z,2.50
2023-05-12T08:25:10.360Z,2.40
2023-05-12T08:27:40.438Z,2.10
2023-05-12T08:30:10.938Z,2.43
2023-05-12T08:32:38.937Z,2.40
2023-05-12T08:35:07.522Z,2.20
2023-05-12T08:37:35.374Z,2.53
2023-05-12T08:40:04.257Z,2.40
2023-05-12T08:42:43.816Z,2.17
2023-05-12T08:45:14.792Z,2.10
2023-05-12T08:47:46.610Z,2.33
2023-05-12T08:50:18.467Z,2.70
2023-05-12T08:52:46.615Z,2.50
2023-05-12T08:55:15.436Z,2.97
2023-05-12T08:57:48.273Z,3.37
2023-05-12T09:00:20.270Z,2.40
2023-05-12T09:02:54.539Z,2.67
2023-05-12T09:05:23.342Z,2.57
2023-05-12T09:07:54.599Z,2.40
2023-05-12T09:10:34.351Z,2.13
2023-05-12T09:13:05.719Z,2.57
2023-05-12T09:15:40.855Z,2.33
2023-05-12T09:18:08.699Z,2.03
2023-05-12T09:20:36.953Z,2.20
2023-05-12T09:23:17.511Z,2.10
2023-05-12T09:25:46.959Z,2.00
2023-05-12T09:28:15.831Z,2.00
2023-05-12T09:30:44.952Z,2.27
2023-05-12T09:33:13.892Z,2.00
2023-05-12T09:35:43.336Z,2.47
2023-05-12T09:38:13.275Z,2.00
2023-05-12T09:40:41.368Z,1.87
2023-05-12T09:43:11.528Z,1.50
2023-05-12T09:45:40.523Z,1.47
2023-05-12T09:48:21.216Z,1.50
2023-05-12T09:50:51.104Z,1.50
2023-05-12T09:53:22.910Z,1.33
2023-05-12T09:55:50.873Z,1.63
2023-05-12T09:58:20.938Z,1.30
2023-05-12T10:03:23.811Z,1.10
2023-05-12T10:05:55.562Z,0.97
2023-05-12T10:08:26.580Z,1.10
2023-05-12T10:10:57.514Z,1.00
2023-05-12T10:13:26.311Z,1.10
2023-05-12T10:15:59.701Z,1.00
2023-05-12T10:18:29.208Z,0.90
2023-05-12T10:20:57.703Z,1.00
2023-05-12T10:23:27.653Z,1.00
2023-05-12T10:25:58.570Z,1.20
2023-05-12T10:28:26.325Z,0.90
2023-05-12T10:30:54.788Z,1.00
2023-05-12T10:33:22.801Z,1.27
2023-05-12T10:35:53.364Z,1.20
2023-05-12T10:38:21.140Z,1.00
2023-05-12T10:40:58.014Z,1.03
2023-05-12T10:43:27.505Z,1.10
2023-05-12T10:46:08.820Z,1.00
2023-05-12T10:48:38.194Z,1.40
2023-05-12T10:51:11.861Z,1.27
2023-05-12T10:53:49.883Z,1.70
2023-05-12T10:56:25.035Z,1.43
2023-05-12T10:59:14.492Z,1.50
2023-05-12T11:01:44.561Z,1.40
2023-05-12T11:04:17.105Z,1.40
2023-05-12T11:06:47.184Z,1.40
2023-05-12T11:09:17.509Z,1.00
2023-05-12T11:11:45.871Z,1.10
2023-05-12T11:14:14.376Z,1.40
2023-05-12T11:16:45.534Z,1.47
2023-05-12T11:19:13.893Z,1.50
2023-05-12T11:21:42.027Z,1.63
2023-05-12T11:24:14.576Z,2.10
2023-05-12T11:26:42.512Z,2.30
2023-05-12T11:29:10.274Z,2.13
2023-05-12T11:31:39.303Z,2.07
2023-05-12T11:34:13.017Z,2.50
2023-05-12T11:36:43.208Z,2.37
2023-05-12T11:39:17.500Z,2.33
2023-05-12T11:41:45.975Z,2.73
2023-05-12T11:44:14.916Z,2.10
2023-05-12T11:46:42.678Z,2.80
2023-05-12T11:49:13.381Z,2.87
2023-05-12T11:51:44.551Z,2.40
2023-05-12T11:54:12.601Z,3.43
2023-05-12T11:56:49.137Z,3.27
2023-05-12T11:59:28.143Z,3.67
2023-05-12T12:01:55.925Z,3.40
2023-05-12T12:04:36.905Z,2.87
2023-05-12T12:07:05.432Z,2.47
2023-05-12T12:09:34.874Z,2.67
2023-05-12T12:12:06.301Z,1.80
2023-05-12T12:14:34.934Z,2.13
2023-05-12T12:17:03.086Z,1.90
2023-05-12T12:19:31.025Z,1.77
2023-05-12T12:21:59.370Z,1.47
2023-05-12T12:24:27.397Z,1.63
2023-05-12T12:26:55.116Z,1.40
2023-05-12T12:29:26.150Z,1.97
2023-05-12T12:31:53.860Z,1.40
2023-05-12T12:34:21.598Z,1.30
2023-05-12T12:36:49.355Z,1.20
2023-05-12T12:39:19.695Z,1.10
2023-05-12T12:41:48.378Z,1.20
2023-05-12T12:44:16.415Z,1.07
2023-05-12T12:46:45.731Z,1.30
2023-05-12T12:49:13.845Z,1.10
2023-05-12T12:51:46.224Z,1.30
2023-05-12T12:54:16.021Z,1.10
2023-05-12T12:56:44.319Z,1.40
2023-05-12T12:59:12.870Z,1.50
2023-05-12T13:01:40.864Z,1.30
2023-05-12T13:04:09.942Z,1.37
2023-05-12T13:06:37.850Z,1.77
2023-05-12T13:09:05.665Z,1.30
2023-05-12T13:11:34.051Z,1.20
2023-05-12T13:14:04.436Z,1.20
2023-05-12T13:16:32.401Z,1.27
2023-05-12T13:19:00.428Z,1.43
2023-05-12T13:21:29.719Z,1.53
2023-05-12T13:23:57.664Z,1.50
2023-05-12T13:26:25.394Z,1.20
2023-05-12T13:28:53.546Z,1.30
2023-05-12T13:31:21.474Z,1.60
2023-05-12T13:33:49.314Z,1.77
2023-05-12T13:36:17.649Z,1.80
2023-05-12T13:38:46.752Z,1.80
2023-05-12T13:41:14.718Z,1.90
2023-05-12T13:43:42.347Z,1.40
2023-05-12T13:46:10.452Z,1.33
2023-05-12T13:48:40.501Z,1.30
2023-05-12T13:51:08.740Z,1.20
2023-05-12T13:53:38.578Z,1.33
2023-05-12T13:56:08.742Z,1.40
2023-05-12T13:58:36.606Z,1.30
2023-05-12T14:01:05.000Z,1.60
2023-05-12T14:03:33.432Z,1.33
2023-05-12T14:06:01.158Z,1.43
2023-05-12T14:08:29.205Z,1.43
2023-05-12T14:10:58.509Z,1.27
2023-05-12T14:13:27.893Z,1.50
2023-05-12T14:15:56.150Z,1.57
2023-05-12T14:18:25.140Z,1.30
2023-05-12T14:20:53.271Z,1.60
2023-05-12T14:23:21.060Z,1.23
2023-05-12T14:25:48.796Z,1.60
2023-05-12T14:28:16.759Z,1.37
2023-05-12T14:30:46.133Z,2.10
2023-05-12T14:33:13.967Z,1.53
2023-05-12T14:35:43.209Z,1.97
2023-05-12T14:38:12.768Z,1.73
2023-05-12T14:40:40.930Z,1.53
2023-05-12T14:43:08.757Z,1.40
2023-05-12T14:45:36.570Z,2.17
2023-05-12T14:48:06.567Z,1.23
2023-05-12T14:50:34.407Z,1.40
2023-05-12T14:53:02.213Z,1.40
2023-05-12T14:55:30.092Z,1.33
2023-05-12T14:57:58.056Z,1.40
2023-05-12T15:00:26.249Z,1.47
2023-05-12T15:02:53.960Z,1.40
2023-05-12T15:05:29.678Z,1.40
2023-05-12T15:08:03.969Z,1.43
2023-05-12T15:10:31.969Z,1.90
2023-05-12T15:12:59.688Z,1.67
2023-05-12T15:15:27.645Z,1.50
2023-05-12T15:17:55.475Z,1.33
2023-05-12T15:20:24.621Z,1.37
2023-05-12T15:22:54.606Z,1.10
2023-05-12T15:25:32.471Z,1.00
2023-05-12T15:28:01.155Z,1.23
2023-05-12T15:30:29.245Z,1.10
2023-05-12T15:32:57.051Z,1.43
2023-05-12T15:35:27.839Z,1.20
2023-05-12T15:37:55.636Z,1.20
2023-05-12T15:40:23.324Z,1.10
2023-05-12T15:42:51.037Z,1.20
2023-05-12T15:45:19.425Z,1.13
2023-05-12T15:47:47.785Z,1.20
2023-05-12T15:50:19.752Z,1.00
2023-05-12T15:52:49.579Z,0.90
2023-05-12T15:55:18.153Z,1.40
2023-05-12T15:57:46.718Z,1.30
2023-05-12T16:00:16.025Z,1.00
2023-05-12T16:02:44.101Z,1.23
2023-05-12T16:05:13.073Z,1.03
2023-05-12T16:07:42.804Z,1.13
2023-05-12T16:10:14.126Z,1.20
2023-05-12T16:12:43.761Z,1.10
2023-05-12T16:15:12.670Z,1.10
2023-05-12T16:17:40.833Z,1.10
2023-05-12T16:20:12.088Z,1.10
2023-05-12T16:22:40.336Z,1.20
2023-05-12T16:25:08.947Z,1.23
2023-05-12T16:27:38.896Z,1.20
2023-05-12T16:30:09.397Z,1.37
2023-05-12T16:32:37.214Z,1.03
2023-05-12T16:35:05.850Z,0.93
2023-05-12T16:37:35.620Z,1.17
2023-05-12T16:40:04.876Z,1.50
2023-05-12T16:42:33.189Z,2.60
2023-05-12T16:45:02.366Z,1.00
2023-05-12T16:47:30.499Z,1.20
2023-05-12T16:49:59.644Z,1.30
2023-05-12T16:52:29.379Z,1.13
2023-05-12T16:54:57.414Z,1.43
2023-05-12T16:57:25.670Z,1.20
2023-05-12T16:59:53.693Z,1.20
2023-05-12T17:02:23.160Z,1.10
2023-05-12T17:04:53.634Z,1.50
2023-05-12T17:07:21.391Z,1.10
2023-05-12T17:09:49.111Z,1.30
2023-05-12T17:12:16.924Z,1.10
2023-05-12T17:14:50.244Z,1.20
2023-05-12T17:17:25.229Z,1.00
2023-05-12T17:19:54.456Z,1.30
2023-05-12T17:22:22.514Z,1.40
2023-05-12T17:24:51.290Z,1.23
2023-05-12T17:27:22.235Z,1.43
2023-05-12T17:29:50.130Z,3.60
2023-05-12T17:32:18.878Z,2.80
2023-05-12T17:34:50.402Z,1.47
2023-05-12T17:37:19.842Z,1.07
2023-05-12T17:39:47.969Z,0.97
2023-05-12T17:42:16.073Z,0.90
2023-05-12T17:44:44.370Z,1.07
2023-05-12T17:47:14.268Z,0.97
2023-05-12T17:49:43.895Z,1.10
2023-05-12T17:52:14.783Z,1.00
2023-05-12T17:54:42.760Z,1.00
2023-05-12T17:57:10.924Z,1.20
2023-05-12T17:59:38.709Z,1.10
2023-05-12T18:02:06.654Z,1.03
2023-05-12T18:04:38.538Z,1.00
2023-05-12T18:07:07.016Z,1.10
2023-05-12T18:09:36.152Z,1.20
2023-05-12T18:12:05.656Z,1.00
2023-05-12T18:14:34.858Z,1.50
2023-05-12T18:17:05.312Z,1.20
2023-05-12T18:19:33.804Z,1.20
2023-05-12T18:22:02.313Z,1.80
2023-05-12T18:24:30.837Z,1.57
2023-05-12T18:27:03.975Z,1.50
2023-05-12T18:29:32.962Z,1.50
2023-05-12T18:32:01.222Z,1.40
2023-05-12T18:34:30.138Z,7.43
2023-05-12T18:36:58.148Z,1.60
2023-05-12T18:39:27.914Z,1.17
2023-05-12T18:41:55.850Z,1.53
2023-05-12T18:44:25.082Z,1.43
2023-05-12T18:46:52.904Z,1.10
2023-05-12T18:49:21.707Z,0.93
2023-05-12T18:51:49.596Z,0.90
2023-05-12T18:54:17.600Z,0.90
2023-05-12T18:56:47.907Z,2.13
2023-05-12T18:59:17.768Z,1.90
2023-05-12T19:01:50.806Z,0.87
2023-05-12T19:04:22.076Z,0.80
2023-05-12T19:06:52.051Z,0.97
2023-05-12T19:12:15.055Z,0.80
2023-05-12T19:14:44.615Z,1.20
2023-05-12T19:17:14.769Z,3.17
2023-05-12T19:19:50.433Z,1.10
2023-05-12T19:22:18.491Z,1.00
2023-05-12T19:24:49.190Z,1.27
2023-05-12T19:27:20.461Z,2.10
2023-05-12T19:29:52.600Z,1.20
2023-05-12T19:32:28.693Z,2.03
2023-05-12T19:35:02.684Z,1.20
2023-05-12T19:37:33.311Z,1.50
2023-05-12T19:40:04.591Z,8.83
2023-05-12T19:42:36.642Z,10.63
2023-05-12T19:45:07.784Z,1.10
2023-05-12T19:47:42.409Z,1.13
2023-05-12T19:50:12.239Z,1.57
2023-05-12T19:52:42.382Z,1.63
2023-05-12T19:55:19.830Z,1.27
2023-05-12T19:57:52.793Z,1.27
2023-05-12T20:00:22.344Z,6.70
2023-05-12T20:02:54.225Z,5.33
2023-05-12T20:05:22.458Z,4.10
2023-05-12T20:07:51.088Z,1.77
2023-05-12T20:10:19.748Z,28.63
2023-05-12T20:12:53.895Z,1.23
2023-05-12T20:15:22.112Z,1.43
2023-05-12T20:17:51.429Z,1.17
2023-05-12T20:20:19.382Z,1.33
2023-05-12T20:22:48.123Z,1.50
2023-05-12T20:25:17.798Z,1.60
2023-05-12T20:27:48.855Z,1.90
2023-05-12T20:30:16.872Z,1.40
2023-05-12T20:32:44.929Z,1.80
2023-05-12T20:35:14.121Z,1.50
2023-05-12T20:37:42.244Z,11.00
2023-05-12T20:40:11.134Z,4.20
2023-05-12T20:42:39.089Z,5.73
2023-05-12T20:45:08.736Z,1.83
2023-05-12T20:47:37.854Z,1.60
2023-05-12T20:50:06.508Z,1.37
2023-05-12T20:52:38.416Z,1.40
2023-05-12T20:55:09.074Z,1.30
2023-05-12T20:57:37.842Z,1.43
2023-05-12T21:00:07.566Z,1.20
2023-05-12T21:02:35.609Z,2.53
2023-05-12T21:05:06.735Z,0.90
2023-05-12T21:07:36.155Z,1.77
2023-05-12T21:10:09.205Z,1.10
2023-05-12T21:12:37.771Z,1.00
2023-05-12T21:15:11.324Z,2.87
2023-05-12T21:17:45.255Z,1.20
2023-05-12T21:20:21.597Z,1.50
2023-05-12T21:22:51.101Z,2.07
2023-05-12T21:25:19.904Z,1.40
2023-05-12T21:27:49.614Z,1.00
2023-05-12T21:30:21.263Z,1.20
2023-05-12T21:32:53.157Z,1.47
2023-05-12T21:35:24.690Z,1.20
2023-05-12T21:37:55.694Z,0.90
2023-05-12T21:40:24.080Z,7.63
2023-05-12T21:43:07.145Z,1.23
2023-05-12T21:45:37.233Z,1.20
2023-05-12T21:48:06.409Z,1.40
2023-05-12T21:50:35.654Z,1.10
2023-05-12T21:53:08.503Z,1.20
2023-05-12T21:55:36.481Z,1.50
2023-05-12T21:58:04.640Z,1.07
2023-05-12T22:00:32.865Z,1.37
2023-05-12T22:03:01.198Z,1.50
2023-05-12T22:05:34.203Z,1.47
2023-05-12T22:08:02.302Z,1.47
2023-05-12T22:10:37.571Z,1.60
2023-05-12T22:13:05.921Z,1.30
2023-05-12T22:15:35.146Z,6.80
2023-05-12T22:18:05.511Z,6.83
2023-05-12T22:20:33.545Z,1.60
2023-05-12T22:23:01.365Z,3.13
2023-05-12T22:25:29.364Z,2.07
2023-05-12T22:27:58.564Z,1.67
2023-05-12T22:30:26.676Z,4.67
2023-05-12T22:32:54.605Z,3.80
2023-05-12T22:35:22.453Z,4.93
2023-05-12T22:37:50.879Z,2.87
2023-05-12T22:40:21.526Z,1.50
2023-05-12T22:42:49.542Z,2.37
2023-05-12T22:45:19.456Z,1.70
2023-05-12T22:47:47.293Z,1.60
2023-05-12T22:50:15.290Z,1.67
2023-05-12T22:52:43.145Z,1.60
2023-05-12T22:55:11.331Z,1.60
2023-05-12T22:57:40.975Z,2.03
2023-05-12T23:00:09.981Z,1.70
2023-05-12T23:02:39.520Z,1.67
2023-05-12T23:05:08.169Z,1.53
2023-05-12T23:07:38.365Z,1.53
2023-05-12T23:10:07.375Z,2.90
2023-05-12T23:12:35.444Z,2.13
2023-05-12T23:15:03.217Z,1.40
2023-05-12T23:17:30.948Z,1.50
2023-05-12T23:20:01.145Z,1.53
2023-05-12T23:22:28.927Z,1.50
2023-05-12T23:24:58.312Z,1.67
2023-05-12T23:27:26.737Z,1.50
2023-05-12T23:29:54.468Z,1.40
2023-05-12T23:32:22.351Z,2.10
2023-05-12T23:34:50.623Z,1.87
2023-05-12T23:37:20.288Z,2.27
2023-05-12T23:39:48.223Z,1.73
2023-05-12T23:42:17.300Z,1.50
2023-05-12T23:44:45.066Z,1.70
2023-05-12T23:47:12.742Z,1.90
2023-05-12T23:49:40.461Z,1.70
2023-05-12T23:52:08.486Z,1.90
2023-05-12T23:54:37.530Z,1.83
2023-05-12T23:57:05.722Z,2.20
2023-05-12T23:59:34.869Z,1.87
